createdAt,value
2018-08-27T00:00:37.091Z,99.99
2018-08-27T00:01:36.974Z,99.99
2018-08-27T00:02:37.096Z,99.99
2018-08-27T00:03:36.989Z,99.99
2018-08-27T00:04:37.004Z,99.99
2018-08-27T00:05:37.029Z,99.99
2018-08-27T00:06:37.020Z,99.99
2018-08-27T00:07:37.139Z,99.99
2018-08-27T00:08:37.045Z,99.99
2018-08-27T00:09:37.177Z,99.99
2018-08-27T00:10:37.073Z,99.99
2018-08-27T00:11:37.069Z,99.99
2018-08-27T00:12:37.351Z,99.99
2018-08-27T00:13:37.099Z,99.99
2018-08-27T00:14:37.095Z,99.99
2018-08-27T00:15:37.231Z,99.99
2018-08-27T00:16:37.135Z,99.99
2018-08-27T00:17:37.239Z,99.99
2018-08-27T00:18:37.127Z,99.99
2018-08-27T00:20:37.145Z,99.99
2018-08-27T00:21:37.285Z,99.99
2018-08-27T00:23:37.193Z,99.99
2018-08-27T00:25:37.212Z,99.99
2018-08-27T00:26:37.239Z,99.99
2018-08-27T00:28:37.278Z,99.99
2018-08-27T00:29:37.248Z,99.99
2018-08-27T00:30:37.290Z,99.99
2018-08-27T00:32:37.420Z,99.99
2018-08-27T00:33:37.270Z,99.99
2018-08-27T00:34:37.406Z,99.99
2018-08-27T00:35:37.302Z,99.99
2018-08-27T00:36:37.297Z,99.99
2018-08-27T00:37:37.470Z,99.99
2018-08-27T00:39:37.341Z,99.99
2018-08-27T00:40:37.348Z,99.99
2018-08-27T00:42:37.565Z,99.99
2018-08-27T00:43:37.382Z,99.99
2018-08-27T00:44:37.385Z,99.99
2018-08-27T00:45:37.396Z,99.99
2018-08-27T00:47:37.660Z,99.99
2018-08-27T00:48:37.417Z,99.99
2018-08-27T00:49:37.551Z,99.99
2018-08-27T00:50:37.459Z,99.99
2018-08-27T00:52:37.619Z,99.99
2018-08-27T00:53:37.463Z,99.99
2018-08-27T00:54:37.490Z,99.99
2018-08-27T00:55:37.485Z,99.99
2018-08-27T00:56:37.514Z,99.99
2018-08-27T00:58:37.532Z,99.99
2018-08-27T00:59:37.600Z,99.99
2018-08-27T01:01:37.665Z,99.99
2018-08-27T01:02:37.717Z,99.99
2018-08-27T01:04:37.568Z,99.99
2018-08-27T01:07:37.750Z,99.99
2018-08-27T01:08:37.603Z,99.99
2018-08-27T01:09:37.613Z,99.99
2018-08-27T01:11:37.639Z,99.99
2018-08-27T01:12:37.967Z,99.99
2018-08-27T01:13:37.652Z,99.99
2018-08-27T01:14:37.669Z,99.99
2018-08-27T01:15:37.672Z,99.99
2018-08-27T01:16:37.682Z,99.99
2018-08-27T01:17:37.904Z,99.99
2018-08-27T01:18:37.720Z,99.99
2018-08-27T01:20:37.844Z,99.99
2018-08-27T01:21:37.726Z,99.99
2018-08-27T01:24:37.754Z,99.99
2018-08-27T01:25:37.890Z,99.99
2018-08-27T01:26:37.792Z,99.99
2018-08-27T01:33:37.851Z,99.99
2018-08-27T01:34:37.864Z,99.99
2018-08-27T01:35:37.859Z,99.99
2018-08-27T01:36:38.001Z,99.99
2018-08-27T01:37:38.033Z,99.99
2018-08-27T01:38:38.016Z,99.99
2018-08-27T01:39:37.901Z,99.99
2018-08-27T01:40:38.047Z,99.99
2018-08-27T01:42:38.207Z,99.99
2018-08-27T01:44:37.960Z,99.99
2018-08-27T01:45:37.961Z,99.99
2018-08-27T01:47:38.065Z,99.99
2018-08-27T01:48:37.986Z,99.99
2018-08-27T01:49:37.992Z,99.99
2018-08-27T01:50:38.130Z,99.99
2018-08-27T01:51:38.025Z,99.99
2018-08-27T01:52:38.204Z,99.99
2018-08-27T01:53:38.034Z,99.99
2018-08-27T01:55:38.053Z,99.99
2018-08-27T01:56:38.064Z,99.99
2018-08-27T01:57:38.199Z,99.99
2018-08-27T01:58:38.204Z,99.99
2018-08-27T01:59:38.311Z,99.99
2018-08-27T02:01:38.111Z,99.99
2018-08-27T02:02:38.112Z,99.99
2018-08-27T02:04:38.410Z,99.99
2018-08-27T02:05:38.270Z,99.99
2018-08-27T02:06:38.283Z,99.99
2018-08-27T02:08:38.302Z,99.99
2018-08-27T02:10:38.211Z,99.99
2018-08-27T02:13:38.222Z,99.99
2018-08-27T02:14:38.507Z,99.99
2018-08-27T02:16:38.373Z,99.99
2018-08-27T02:17:38.381Z,99.99
2018-08-27T02:18:38.262Z,99.99
2018-08-27T02:19:38.549Z,99.99
2018-08-27T02:20:38.286Z,99.99
2018-08-27T02:21:38.304Z,99.99
2018-08-27T02:24:38.369Z,99.99
2018-08-27T02:25:38.350Z,99.99
2018-08-27T02:27:38.478Z,99.99
2018-08-27T02:29:38.376Z,99.99
2018-08-27T02:30:38.395Z,99.99
2018-08-27T02:32:38.392Z,99.99
2018-08-27T02:33:38.406Z,99.99
2018-08-27T02:34:38.422Z,99.99
2018-08-27T02:35:38.424Z,99.99
2018-08-27T02:36:38.585Z,99.99
2018-08-27T02:37:38.567Z,99.99
2018-08-27T02:38:38.576Z,99.99
2018-08-27T02:39:38.592Z,99.99
2018-08-27T02:40:38.469Z,99.99
2018-08-27T02:44:38.633Z,99.99
2018-08-27T02:45:38.527Z,99.99
2018-08-27T02:46:38.528Z,99.99
2018-08-27T02:47:38.558Z,99.99
2018-08-27T02:48:38.767Z,99.99
2018-08-27T02:52:38.583Z,99.99
2018-08-27T02:53:38.741Z,99.99
2018-08-27T02:54:38.598Z,99.99
2018-08-27T02:58:38.910Z,99.99
2018-08-27T03:00:38.661Z,99.99
2018-08-27T03:01:38.664Z,99.99
2018-08-27T03:02:38.810Z,99.99
2018-08-27T03:05:38.713Z,99.99
2018-08-27T03:06:38.712Z,99.99
2018-08-27T03:08:38.913Z,99.99
2018-08-27T03:11:38.768Z,99.99
2018-08-27T03:12:38.764Z,99.99
2018-08-27T03:13:39.055Z,99.99
2018-08-27T03:15:38.792Z,99.99
2018-08-27T03:17:38.933Z,99.99
2018-08-27T03:18:39.043Z,99.99
2018-08-27T03:19:38.960Z,99.99
2018-08-27T03:20:38.840Z,99.99
2018-08-27T03:22:38.869Z,99.99
2018-08-27T03:24:39.003Z,99.99
2018-08-27T03:25:39.010Z,99.99
2018-08-27T03:27:39.004Z,99.99
2018-08-27T03:33:38.986Z,99.99
2018-08-27T03:36:39.113Z,99.99
2018-08-27T03:37:39.091Z,99.99
2018-08-27T03:38:39.131Z,99.99
2018-08-27T03:39:39.137Z,99.99
2018-08-27T03:41:39.051Z,99.99
2018-08-27T03:42:39.320Z,99.99
2018-08-27T03:43:39.175Z,99.99
2018-08-27T03:45:39.069Z,99.99
2018-08-27T03:47:39.248Z,99.99
2018-08-27T03:48:39.162Z,99.99
2018-08-27T03:49:39.117Z,99.99
2018-08-27T03:51:39.252Z,99.99
2018-08-27T03:52:39.129Z,99.99
2018-08-27T03:54:39.277Z,99.99
2018-08-27T03:57:39.176Z,99.99
2018-08-27T04:01:39.232Z,99.99
2018-08-27T04:02:39.226Z,99.99
2018-08-27T04:03:39.237Z,99.99
2018-08-27T04:07:39.399Z,99.99
2018-08-27T04:11:39.430Z,99.99
2018-08-27T04:14:39.429Z,99.99
2018-08-27T04:15:39.474Z,99.99
2018-08-27T04:16:39.476Z,99.99
2018-08-27T04:17:39.357Z,99.99
2018-08-27T04:19:39.606Z,99.99
2018-08-27T04:20:39.374Z,99.99
2018-08-27T04:22:39.409Z,99.99
2018-08-27T04:23:39.538Z,99.99
2018-08-27T04:24:39.576Z,99.99
2018-08-27T04:25:39.429Z,99.99
2018-08-27T04:27:39.460Z,99.99
2018-08-27T04:31:39.499Z,99.99
2018-08-27T04:32:39.500Z,99.99
2018-08-27T04:33:39.636Z,99.99
2018-08-27T04:34:39.741Z,99.99
2018-08-27T04:35:39.652Z,99.99
2018-08-27T04:39:39.669Z,99.99
2018-08-27T04:43:39.609Z,99.99
2018-08-27T04:44:39.885Z,99.99
2018-08-27T04:45:39.642Z,99.99
2018-08-27T04:46:39.622Z,99.99
2018-08-27T04:48:39.645Z,99.99
2018-08-27T04:49:39.743Z,99.99
2018-08-27T04:50:39.784Z,99.99
2018-08-27T04:52:39.679Z,99.99
2018-08-27T04:53:39.818Z,99.99
2018-08-27T04:55:39.697Z,99.99
2018-08-27T04:56:39.764Z,99.99
2018-08-27T04:57:39.726Z,99.99
2018-08-27T04:58:39.730Z,99.99
2018-08-27T04:59:39.866Z,99.99
2018-08-27T05:00:39.922Z,99.99
2018-08-27T05:01:39.765Z,99.99
2018-08-27T05:03:39.833Z,99.99
2018-08-27T05:05:39.793Z,99.99
2018-08-27T05:06:40.087Z,99.99
2018-08-27T05:07:39.814Z,99.99
2018-08-27T05:08:39.948Z,99.99
2018-08-27T05:09:39.849Z,99.99
2018-08-27T05:10:39.852Z,99.99
2018-08-27T05:11:39.947Z,99.99
2018-08-27T05:13:39.870Z,99.99
2018-08-27T05:16:39.916Z,99.99
2018-08-27T05:18:39.916Z,99.99
2018-08-27T05:19:39.921Z,99.99
2018-08-27T05:20:39.978Z,99.99
2018-08-27T05:21:39.953Z,99.99
2018-08-27T05:22:40.074Z,99.99
2018-08-27T05:24:39.970Z,99.99
2018-08-27T05:25:39.977Z,99.99
2018-08-27T05:26:40.038Z,99.99
2018-08-27T05:27:40.117Z,99.99
2018-08-27T05:28:40.279Z,99.99
2018-08-27T05:30:40.063Z,99.99
2018-08-27T05:31:40.166Z,99.99
2018-08-27T05:32:40.033Z,99.99
2018-08-27T05:33:40.326Z,99.99
2018-08-27T05:37:40.089Z,99.99
2018-08-27T05:38:40.277Z,99.99
2018-08-27T05:39:40.166Z,99.99
2018-08-27T05:40:40.240Z,99.99
2018-08-27T05:41:40.118Z,99.99
2018-08-27T05:42:40.130Z,99.99
2018-08-27T05:43:40.365Z,99.99
2018-08-27T05:44:40.151Z,99.99
2018-08-27T05:45:40.161Z,99.99
2018-08-27T05:46:40.229Z,99.99
2018-08-27T05:47:40.214Z,99.99
2018-08-27T05:48:40.284Z,99.99
2018-08-27T05:51:40.219Z,99.99
2018-08-27T05:54:40.237Z,99.99
2018-08-27T05:55:40.255Z,99.99
2018-08-27T05:57:40.268Z,99.99
2018-08-27T06:01:40.400Z,99.99
2018-08-27T06:02:40.432Z,99.99
2018-08-27T06:03:40.525Z,99.99
2018-08-27T06:04:40.456Z,99.99
2018-08-27T06:05:40.341Z,99.99
2018-08-27T06:06:40.472Z,99.99
2018-08-27T06:07:40.367Z,99.99
2018-08-27T06:09:40.405Z,99.99
2018-08-27T06:10:40.386Z,99.99
2018-08-27T06:11:40.522Z,99.99
2018-08-27T06:12:40.396Z,99.99
2018-08-27T06:13:40.466Z,99.99
2018-08-27T06:14:40.423Z,99.99
2018-08-27T06:16:40.551Z,99.99
2018-08-27T06:17:40.583Z,99.99
2018-08-27T06:18:40.609Z,99.99
2018-08-27T06:19:40.456Z,99.99
2018-08-27T06:20:40.471Z,99.99
2018-08-27T06:21:40.490Z,99.99
2018-08-27T06:27:40.668Z,99.99
2018-08-27T06:28:40.674Z,99.99
2018-08-27T06:29:40.600Z,99.99
2018-08-27T06:32:40.710Z,99.99
2018-08-27T06:33:40.718Z,99.99
2018-08-27T06:34:40.599Z,99.99
2018-08-27T06:36:40.717Z,99.99
2018-08-27T06:37:40.640Z,99.99
2018-08-27T06:38:40.642Z,99.99
2018-08-27T06:39:40.782Z,99.99
2018-08-27T06:40:40.660Z,99.99
2018-08-27T06:42:40.689Z,99.99
2018-08-27T06:44:40.718Z,99.99
2018-08-27T06:46:40.873Z,99.99
2018-08-27T06:47:40.715Z,99.99
2018-08-27T06:49:40.862Z,99.99
2018-08-27T06:50:40.876Z,99.99
2018-08-27T06:51:41.033Z,99.99
2018-08-27T06:52:40.760Z,99.99
2018-08-27T06:54:40.784Z,99.99
2018-08-27T06:55:40.790Z,99.99
2018-08-27T06:56:41.035Z,99.99
2018-08-27T06:58:40.838Z,99.99
2018-08-27T06:59:40.951Z,99.99
2018-08-27T07:00:40.828Z,99.99
2018-08-27T07:01:41.068Z,99.99
2018-08-27T07:02:40.902Z,99.99
2018-08-27T07:05:40.881Z,99.99
2018-08-27T07:06:41.049Z,99.99
2018-08-27T07:07:41.129Z,99.99
2018-08-27T07:09:41.044Z,99.99
2018-08-27T07:10:41.058Z,99.99
2018-08-27T07:11:41.115Z,99.99
2018-08-27T07:12:40.959Z,99.99
2018-08-27T07:14:40.966Z,99.99
2018-08-27T07:15:41.019Z,99.99
2018-08-27T07:20:41.031Z,99.99
2018-08-27T07:21:41.051Z,99.99
2018-08-27T07:23:41.056Z,99.99
2018-08-27T07:24:41.055Z,99.99
2018-08-27T07:25:41.083Z,99.99
2018-08-27T07:26:41.076Z,99.99
2018-08-27T07:27:41.239Z,99.99
2018-08-27T07:28:41.087Z,99.99
2018-08-27T07:30:41.113Z,99.99
2018-08-27T07:32:41.303Z,99.99
2018-08-27T07:33:41.266Z,99.99
2018-08-27T07:34:41.272Z,99.99
2018-08-27T07:35:41.325Z,99.99
2018-08-27T07:36:41.407Z,99.99
2018-08-27T07:37:41.175Z,99.99
2018-08-27T07:38:41.211Z,99.99
2018-08-27T07:40:41.329Z,99.99
2018-08-27T07:41:41.456Z,99.99
2018-08-27T07:45:41.239Z,99.99
2018-08-27T07:46:41.407Z,99.99
2018-08-27T07:48:41.401Z,99.99
2018-08-27T07:49:41.292Z,99.99
2018-08-27T07:52:41.319Z,99.99
2018-08-27T07:53:41.332Z,99.99
2018-08-27T07:54:41.340Z,99.99
2018-08-27T07:55:41.352Z,99.99
2018-08-27T07:56:41.444Z,99.99
2018-08-27T07:59:41.497Z,99.99
2018-08-27T08:01:41.496Z,99.99
2018-08-27T08:02:41.404Z,99.99
2018-08-27T08:03:41.530Z,99.99
2018-08-27T08:04:41.640Z,99.99
2018-08-27T08:06:41.486Z,99.99
2018-08-27T08:07:41.575Z,99.99
2018-08-27T08:08:41.455Z,99.99
2018-08-27T08:09:41.718Z,99.99
2018-08-27T08:11:41.482Z,99.99
2018-08-27T08:12:41.548Z,99.99
2018-08-27T08:13:41.509Z,99.99
2018-08-27T08:16:41.656Z,99.99
2018-08-27T08:17:41.536Z,99.99
2018-08-27T08:18:41.671Z,99.99
2018-08-27T08:21:41.700Z,99.99
2018-08-27T08:23:41.712Z,99.99
2018-08-27T08:25:41.738Z,99.99
2018-08-27T08:26:41.622Z,99.99
2018-08-27T08:27:41.633Z,99.99
2018-08-27T08:32:41.663Z,99.99
2018-08-27T08:33:41.695Z,99.99
2018-08-27T08:35:41.821Z,99.99
2018-08-27T08:36:41.704Z,99.99
2018-08-27T08:37:41.723Z,99.99
2018-08-27T08:38:41.850Z,99.99
2018-08-27T08:39:41.898Z,99.99
2018-08-27T08:41:41.796Z,99.99
2018-08-27T08:48:41.816Z,99.99
2018-08-27T08:50:41.956Z,99.99
2018-08-27T08:51:41.848Z,99.99
2018-08-27T08:53:41.857Z,99.99
2018-08-27T08:55:41.930Z,99.99
2018-08-27T08:58:41.915Z,99.99
2018-08-27T08:59:42.071Z,99.99
2018-08-27T09:01:42.143Z,99.99
2018-08-27T09:02:41.935Z,99.99
2018-08-27T09:04:42.156Z,99.99
2018-08-27T09:05:41.979Z,99.99
2018-08-27T09:06:41.992Z,99.99
2018-08-27T09:07:42.112Z,99.99
2018-08-27T09:08:42.037Z,99.99
2018-08-27T09:09:42.234Z,99.99
2018-08-27T09:11:42.045Z,99.99
2018-08-27T09:12:42.156Z,99.99
2018-08-27T09:13:42.043Z,99.99
2018-08-27T09:16:42.091Z,99.99
2018-08-27T09:18:42.212Z,99.99
2018-08-27T09:19:42.255Z,99.99
2018-08-27T09:20:42.118Z,99.99
2018-08-27T09:21:42.131Z,99.99
2018-08-27T09:22:42.251Z,99.99
2018-08-27T09:23:42.216Z,99.99
2018-08-27T09:24:42.189Z,99.99
2018-08-27T09:25:42.221Z,99.99
2018-08-27T09:26:42.284Z,99.99
2018-08-27T09:27:42.496Z,99.99
2018-08-27T09:28:42.191Z,99.99
2018-08-27T09:29:42.235Z,99.99
2018-08-27T09:30:42.203Z,99.99
2018-08-27T09:31:42.210Z,99.99
2018-08-27T09:32:42.491Z,99.99
2018-08-27T09:33:42.348Z,99.99
2018-08-27T09:34:42.245Z,99.99
2018-08-27T09:35:42.370Z,99.99
2018-08-27T09:38:42.395Z,99.99
2018-08-27T09:40:42.424Z,99.99
2018-08-27T09:41:42.537Z,99.99
2018-08-27T09:44:42.345Z,99.99
2018-08-27T09:45:42.351Z,99.99
2018-08-27T09:46:42.364Z,99.99
2018-08-27T09:47:42.407Z,99.99
2018-08-27T09:48:42.383Z,99.99
2018-08-27T09:49:42.504Z,99.99
2018-08-27T09:51:42.391Z,99.99
2018-08-27T09:52:42.600Z,99.99
2018-08-27T09:53:42.543Z,99.99
2018-08-27T09:54:42.421Z,99.99
2018-08-27T09:55:42.583Z,99.99
2018-08-27T09:56:42.564Z,99.99
2018-08-27T09:58:42.629Z,99.99
2018-08-27T10:00:42.519Z,99.99
2018-08-27T10:01:42.610Z,99.99
2018-08-27T10:02:42.622Z,99.99
2018-08-27T10:04:42.517Z,99.99
2018-08-27T10:06:42.664Z,99.99
2018-08-27T10:07:42.670Z,99.99
2018-08-27T10:08:42.654Z,99.99
2018-08-27T10:12:42.587Z,99.99
2018-08-27T10:13:42.717Z,99.99
2018-08-27T10:14:42.625Z,99.99
2018-08-27T10:15:42.630Z,99.99
2018-08-27T10:16:42.762Z,99.99
2018-08-27T10:17:42.646Z,99.99
2018-08-27T10:18:42.827Z,99.99
2018-08-27T10:19:42.786Z,99.99
2018-08-27T10:20:42.673Z,99.99
2018-08-27T10:21:42.848Z,99.99
2018-08-27T10:23:42.822Z,99.99
2018-08-27T10:24:42.714Z,99.99
2018-08-27T10:27:42.745Z,99.99
2018-08-27T10:28:42.749Z,99.99
2018-08-27T10:29:42.889Z,99.99
2018-08-27T10:30:42.763Z,99.99
2018-08-27T10:31:42.954Z,99.99
2018-08-27T10:32:42.807Z,99.99
2018-08-27T10:33:42.809Z,99.99
2018-08-27T10:34:43.007Z,99.99
2018-08-27T10:35:42.832Z,99.99
2018-08-27T10:36:42.850Z,99.99
2018-08-27T10:37:42.828Z,99.99
2018-08-27T10:38:42.857Z,99.99
2018-08-27T10:39:43.063Z,99.99
2018-08-27T10:40:42.874Z,99.99
2018-08-27T10:41:43.001Z,99.99
2018-08-27T10:42:42.901Z,99.99
2018-08-27T10:43:42.889Z,99.99
2018-08-27T10:44:43.191Z,99.99
2018-08-27T10:45:42.908Z,99.99
2018-08-27T10:46:42.937Z,99.99
2018-08-27T10:47:43.066Z,99.99
2018-08-27T10:48:42.959Z,99.99
2018-08-27T10:49:43.072Z,99.99
2018-08-27T10:50:43.093Z,99.99
2018-08-27T10:51:43.027Z,99.99
2018-08-27T10:52:43.121Z,99.99
2018-08-27T10:53:43.125Z,99.99
2018-08-27T10:54:43.184Z,99.99
2018-08-27T10:55:43.145Z,99.99
2018-08-27T10:56:43.038Z,99.99
2018-08-27T10:57:43.071Z,99.99
2018-08-27T10:58:43.182Z,99.99
2018-08-27T10:59:43.440Z,99.99
2018-08-27T11:00:43.069Z,99.99
2018-08-27T11:01:43.207Z,99.99
2018-08-27T11:02:43.094Z,99.99
2018-08-27T11:03:43.097Z,99.99
2018-08-27T11:04:43.345Z,99.99
2018-08-27T11:05:43.248Z,99.99
2018-08-27T11:06:43.148Z,99.99
2018-08-27T11:07:43.149Z,99.99
2018-08-27T11:08:43.159Z,99.99
2018-08-27T11:09:43.331Z,99.99
2018-08-27T11:10:43.293Z,99.99
2018-08-27T11:11:43.312Z,99.99
2018-08-27T11:12:43.204Z,99.99
2018-08-27T11:13:43.339Z,99.99
2018-08-27T11:14:43.318Z,99.99
2018-08-27T11:15:43.231Z,99.99
2018-08-27T11:16:43.365Z,99.99
2018-08-27T11:17:43.253Z,99.99
2018-08-27T11:18:43.257Z,99.99
2018-08-27T11:19:43.774Z,99.99
2018-08-27T11:20:43.583Z,99.99
2018-08-27T11:21:43.417Z,99.99
2018-08-27T11:22:43.307Z,99.99
2018-08-27T11:23:43.447Z,99.99
2018-08-27T11:24:43.656Z,99.99
2018-08-27T11:25:43.462Z,99.99
2018-08-27T11:26:43.490Z,99.99
2018-08-27T11:27:43.368Z,99.99
2018-08-27T11:28:43.499Z,99.99
2018-08-27T11:29:43.676Z,99.99
2018-08-27T11:30:43.399Z,99.99
2018-08-27T11:31:43.403Z,99.99
2018-08-27T11:32:43.422Z,99.99
2018-08-27T11:33:43.436Z,99.99
2018-08-27T11:34:43.761Z,99.99
2018-08-27T11:35:43.452Z,99.99
2018-08-27T11:36:43.587Z,99.99
2018-08-27T11:37:43.479Z,99.99
2018-08-27T11:38:43.477Z,99.99
2018-08-27T11:39:43.641Z,99.99
2018-08-27T11:40:43.625Z,99.99
2018-08-27T11:41:43.528Z,99.99
2018-08-27T11:42:43.525Z,99.99
2018-08-27T11:43:43.661Z,99.99
2018-08-27T11:44:43.776Z,99.99
2018-08-27T11:45:43.571Z,99.99
2018-08-27T11:46:43.568Z,99.99
2018-08-27T11:47:43.703Z,99.99
2018-08-27T11:48:43.717Z,99.99
2018-08-27T11:50:43.743Z,99.99
2018-08-27T11:52:43.764Z,99.99
2018-08-27T11:53:43.661Z,99.99
2018-08-27T11:54:43.865Z,99.99
2018-08-27T11:57:43.703Z,99.99
2018-08-27T11:58:43.901Z,99.99
2018-08-27T12:00:43.867Z,99.99
2018-08-27T12:02:43.764Z,99.99
2018-08-27T12:04:44.066Z,99.99
2018-08-27T12:06:43.942Z,99.99
2018-08-27T12:07:43.839Z,99.99
2018-08-27T12:08:43.881Z,99.99
2018-08-27T12:09:44.127Z,99.99
2018-08-27T12:10:43.874Z,99.99
2018-08-27T12:11:43.898Z,99.99
2018-08-27T12:14:43.973Z,99.99
2018-08-27T12:17:43.964Z,99.99
2018-08-27T12:18:44.131Z,99.99
2018-08-27T12:19:43.981Z,99.99
2018-08-27T12:22:44.027Z,99.99
2018-08-27T12:25:44.191Z,99.99
2018-08-27T12:26:44.072Z,99.99
2018-08-27T12:27:44.096Z,99.99
2018-08-27T12:28:44.376Z,99.99
2018-08-27T12:29:44.128Z,99.99
2018-08-27T12:30:44.154Z,99.99
2018-08-27T12:31:44.143Z,99.99
2018-08-27T12:32:44.173Z,99.99
2018-08-27T12:33:44.325Z,99.99
2018-08-27T12:35:44.198Z,99.91
2018-08-27T12:38:44.567Z,99.96
2018-08-27T12:39:44.273Z,99.99
2018-08-27T12:40:44.436Z,99.99
2018-08-27T12:41:44.279Z,99.99
2018-08-27T12:42:44.421Z,99.99
2018-08-27T12:43:44.650Z,99.99
2018-08-27T12:44:44.324Z,99.99
2018-08-27T12:45:44.344Z,99.99
2018-08-27T12:48:44.440Z,99.63
2018-08-27T12:49:44.449Z,99.53
2018-08-27T12:51:44.470Z,98.67
2018-08-27T12:52:44.435Z,99.63
2018-08-27T12:53:44.492Z,99.24
2018-08-27T12:54:44.464Z,99.82
2018-08-27T12:55:44.800Z,98.19
2018-08-27T12:57:44.513Z,97.86
2018-08-27T12:58:44.672Z,97.76
2018-08-27T13:00:44.839Z,98.57
2018-08-27T13:02:44.627Z,98.14
2018-08-27T13:03:44.715Z,98.10
2018-08-27T13:05:45.045Z,97.76
2018-08-27T13:06:44.665Z,97.86
2018-08-27T13:07:44.845Z,97.19
2018-08-27T13:09:44.684Z,96.32
2018-08-27T13:10:44.796Z,97.19
2018-08-27T13:11:44.750Z,96.85
2018-08-27T13:12:44.884Z,96.85
2018-08-27T13:14:44.753Z,95.31
2018-08-27T13:15:44.964Z,95.70
2018-08-27T13:18:44.827Z,95.17
2018-08-27T13:21:44.974Z,97.76
2018-08-27T13:25:45.268Z,96.13
2018-08-27T13:27:45.054Z,96.22
2018-08-27T13:28:44.935Z,95.60
2018-08-27T13:29:44.972Z,95.26
2018-08-27T13:30:45.125Z,95.70
2018-08-27T13:31:45.077Z,95.70
2018-08-27T13:33:45.140Z,95.60
2018-08-27T13:34:45.030Z,94.93
2018-08-27T13:35:45.173Z,95.03
2018-08-27T13:36:45.187Z,95.21
2018-08-27T13:37:45.071Z,95.75
2018-08-27T13:39:45.527Z,96.03
2018-08-27T13:40:45.243Z,96.13
2018-08-27T13:42:45.163Z,96.03
2018-08-27T13:43:45.286Z,96.89
2018-08-27T13:45:45.311Z,96.03
2018-08-27T13:47:45.249Z,96.80
2018-08-27T13:48:45.265Z,96.18
2018-08-27T13:49:45.520Z,95.70
2018-08-27T13:50:45.340Z,95.98
2018-08-27T13:51:45.271Z,94.78
2018-08-27T13:52:45.278Z,93.82
2018-08-27T13:53:45.326Z,92.77
2018-08-27T13:54:45.480Z,91.95
2018-08-27T13:55:45.342Z,90.12
2018-08-27T13:56:45.353Z,89.45
2018-08-27T13:57:45.364Z,89.54
2018-08-27T13:58:45.380Z,88.44
2018-08-27T14:01:45.425Z,87.09
2018-08-27T14:02:45.575Z,87.72
2018-08-27T14:04:45.627Z,88.87
2018-08-27T14:05:45.485Z,90.12
2018-08-27T14:07:45.514Z,90.56
2018-08-27T14:08:45.542Z,90.60
2018-08-27T14:09:45.855Z,90.03
2018-08-27T14:10:45.648Z,90.12
2018-08-27T14:12:45.627Z,90.12
2018-08-27T14:13:45.604Z,88.87
2018-08-27T14:14:45.860Z,89.79
2018-08-27T14:16:45.657Z,91.33
2018-08-27T14:17:45.705Z,91.71
2018-08-27T14:19:46.109Z,92.19
2018-08-27T14:20:45.885Z,92.00
2018-08-27T14:21:45.852Z,91.28
2018-08-27T14:22:45.866Z,90.89
2018-08-27T14:23:45.764Z,91.28
2018-08-27T14:24:46.103Z,91.13
2018-08-27T14:25:45.848Z,92.00
2018-08-27T14:27:45.858Z,93.20
2018-08-27T14:29:46.116Z,95.50
2018-08-27T14:31:45.956Z,95.70
2018-08-27T14:34:46.084Z,95.89
2018-08-27T14:35:46.127Z,95.70
2018-08-27T14:36:46.072Z,95.98
2018-08-27T14:37:45.961Z,96.18
2018-08-27T14:38:46.362Z,96.37
2018-08-27T14:39:46.119Z,96.94
2018-08-27T14:40:46.043Z,97.42
2018-08-27T14:42:46.052Z,96.56
2018-08-27T14:43:46.372Z,96.18
2018-08-27T14:45:46.209Z,96.47
2018-08-27T14:46:46.096Z,96.75
2018-08-27T14:47:46.161Z,96.18
2018-08-27T14:48:46.319Z,96.08
2018-08-27T14:49:46.157Z,96.47
2018-08-27T14:50:46.192Z,96.80
2018-08-27T14:51:46.172Z,98.53
2018-08-27T14:54:46.227Z,99.99
2018-08-27T14:55:46.230Z,99.99
2018-08-27T14:56:46.366Z,99.99
2018-08-27T14:57:46.448Z,99.99
2018-08-27T14:58:46.257Z,99.99
2018-08-27T14:59:46.293Z,99.99
2018-08-27T15:02:46.549Z,99.99
2018-08-27T15:04:46.346Z,99.99
2018-08-27T15:05:46.373Z,99.99
2018-08-27T15:08:46.417Z,99.99
2018-08-27T15:09:46.543Z,99.99
2018-08-27T15:10:46.439Z,99.99
2018-08-27T15:12:46.683Z,99.99
2018-08-27T15:13:46.599Z,99.99
2018-08-27T15:15:46.629Z,99.99
2018-08-27T15:16:46.669Z,99.99
2018-08-27T15:21:46.615Z,99.99
2018-08-27T15:24:46.746Z,99.99
2018-08-27T15:26:46.649Z,99.99
2018-08-27T15:27:46.992Z,99.99
2018-08-27T15:28:46.811Z,99.99
2018-08-27T15:29:46.701Z,99.99
2018-08-27T15:30:46.704Z,99.99
2018-08-27T15:31:46.712Z,99.99
2018-08-27T15:34:46.879Z,99.99
2018-08-27T15:36:46.781Z,99.99
2018-08-27T15:38:46.935Z,99.99
2018-08-27T15:39:46.836Z,99.99
2018-08-27T15:40:46.853Z,99.99
2018-08-27T15:41:46.857Z,99.99
2018-08-27T15:42:47.039Z,99.99
2018-08-27T15:44:46.888Z,99.99
2018-08-27T15:45:46.912Z,99.99
2018-08-27T15:46:46.913Z,99.99
2018-08-27T15:48:47.166Z,99.99
2018-08-27T15:50:47.219Z,99.99
2018-08-27T15:52:47.012Z,99.99
2018-08-27T15:53:47.283Z,99.99
2018-08-27T15:54:47.155Z,99.99
2018-08-27T15:55:47.043Z,99.99
2018-08-27T15:56:47.180Z,99.99
2018-08-27T15:57:47.063Z,99.99
2018-08-27T15:59:47.098Z,99.99
2018-08-27T16:00:47.115Z,99.99
2018-08-27T16:02:47.128Z,99.99
2018-08-27T16:03:47.358Z,99.99
2018-08-27T16:04:47.157Z,99.99
2018-08-27T16:05:47.208Z,99.99
2018-08-27T16:08:47.494Z,99.99
2018-08-27T16:09:47.232Z,99.99
2018-08-27T16:11:47.385Z,99.99
2018-08-27T16:12:47.394Z,99.99
2018-08-27T16:13:47.297Z,99.99
2018-08-27T16:14:47.421Z,99.99
2018-08-27T16:15:47.536Z,99.99
2018-08-27T16:18:47.471Z,99.99
2018-08-27T16:20:47.491Z,99.99
2018-08-27T16:21:47.389Z,99.99
2018-08-27T16:22:47.405Z,99.99
2018-08-27T16:23:47.431Z,99.99
2018-08-27T16:24:47.551Z,99.99
2018-08-27T16:26:47.453Z,99.99
2018-08-27T16:28:47.602Z,99.99
2018-08-27T16:29:47.502Z,99.99
2018-08-27T16:30:47.674Z,99.99
2018-08-27T16:32:47.659Z,99.99
2018-08-27T16:33:47.664Z,99.99
2018-08-27T16:34:47.746Z,99.99
2018-08-27T16:35:47.569Z,99.99
2018-08-27T16:36:47.709Z,99.99
2018-08-27T16:37:47.715Z,99.99
2018-08-27T16:38:47.733Z,99.99
2018-08-27T16:39:47.965Z,99.99
2018-08-27T16:41:47.773Z,99.99
2018-08-27T16:42:47.668Z,99.99
2018-08-27T16:45:47.875Z,99.99
2018-08-27T16:47:47.732Z,99.99
2018-08-27T16:48:47.732Z,99.99
2018-08-27T16:49:47.871Z,99.99
2018-08-27T16:51:47.783Z,99.99
2018-08-27T16:53:47.801Z,99.99
2018-08-27T16:56:47.839Z,99.99
2018-08-27T16:58:47.861Z,99.99
2018-08-27T17:03:47.927Z,99.99
2018-08-27T17:04:48.063Z,99.99
2018-08-27T17:05:48.166Z,99.99
2018-08-27T17:07:47.984Z,99.99
2018-08-27T17:08:48.010Z,99.99
2018-08-27T17:09:48.242Z,99.99
2018-08-27T17:11:48.039Z,99.99
2018-08-27T17:12:48.042Z,99.99
2018-08-27T17:16:48.106Z,99.99
2018-08-27T17:18:48.141Z,99.99
2018-08-27T17:19:48.339Z,99.99
2018-08-27T17:20:48.155Z,99.99
2018-08-27T17:21:48.290Z,99.99
2018-08-27T17:22:48.299Z,99.99
2018-08-27T17:23:48.212Z,99.99
2018-08-27T17:24:48.355Z,99.99
2018-08-27T17:25:48.218Z,99.99
2018-08-27T17:26:48.431Z,99.99
2018-08-27T17:27:48.365Z,99.99
2018-08-27T17:28:48.265Z,99.99
2018-08-27T17:29:48.395Z,99.99
2018-08-27T17:30:48.282Z,99.99
2018-08-27T17:31:48.454Z,99.99
2018-08-27T17:32:48.333Z,99.99
2018-08-27T17:33:48.323Z,99.99
2018-08-27T17:34:48.339Z,99.99
2018-08-27T17:35:48.671Z,99.99
2018-08-27T17:36:48.369Z,99.99
2018-08-27T17:37:48.367Z,99.99
2018-08-27T17:38:48.507Z,99.99
2018-08-27T17:39:48.514Z,99.99
2018-08-27T17:40:48.595Z,99.99
2018-08-27T17:41:48.418Z,99.99
2018-08-27T17:42:48.419Z,99.99
2018-08-27T17:43:48.564Z,99.99
2018-08-27T17:44:48.521Z,99.99
2018-08-27T17:45:48.758Z,99.99
2018-08-27T17:46:48.492Z,99.99
2018-08-27T17:47:48.495Z,99.99
2018-08-27T17:48:48.545Z,99.99
2018-08-27T17:49:48.530Z,99.99
2018-08-27T17:50:48.667Z,99.99
2018-08-27T17:51:48.539Z,99.99
2018-08-27T17:52:48.557Z,99.99
2018-08-27T17:53:48.688Z,99.99
2018-08-27T17:54:48.574Z,99.99
2018-08-27T17:55:48.813Z,99.99
2018-08-27T17:56:48.641Z,99.99
2018-08-27T17:57:48.595Z,99.99
2018-08-27T17:58:48.616Z,99.99
2018-08-27T17:59:48.656Z,99.99
2018-08-27T18:00:48.749Z,99.99
2018-08-27T18:01:48.658Z,99.99
2018-08-27T18:02:48.795Z,99.99
2018-08-27T18:03:48.812Z,99.99
2018-08-27T18:04:48.696Z,99.99